sensor_id;sensor_type;location;lat;lon;timestamp;P1;durP1;ratioP1;P2;durP2;ratioP2
54139;SDS011;40046;53.254;5.900;2022-08-27T00:01:49;8.02;;;2.90;;
54139;SDS011;40046;53.254;5.900;2022-08-27T00:04:15;6.32;;;2.75;;
54139;SDS011;40046;53.254;5.900;2022-08-27T00:06:41;3.55;;;1.92;;
54139;SDS011;40046;53.254;5.900;2022-08-27T00:09:07;5.60;;;2.88;;
54139;SDS011;40046;53.254;5.900;2022-08-27T00:11:33;4.72;;;2.38;;
54139;SDS011;40046;53.254;5.900;2022-08-27T00:13:59;8.50;;;3.15;;
54139;SDS011;40046;53.254;5.900;2022-08-27T00:16:26;5.32;;;2.53;;
54139;SDS011;40046;53.254;5.900;2022-08-27T00:18:52;6.45;;;3.63;;
54139;SDS011;40046;53.254;5.900;2022-08-27T00:21:19;10.85;;;3.20;;
54139;SDS011;40046;53.254;5.900;2022-08-27T00:23:45;6.15;;;2.53;;
54139;SDS011;40046;53.254;5.900;2022-08-27T00:26:11;5.80;;;2.70;;
54139;SDS011;40046;53.254;5.900;2022-08-27T00:28:39;6.38;;;2.72;;
54139;SDS011;40046;53.254;5.900;2022-08-27T00:31:05;8.48;;;3.22;;
54139;SDS011;40046;53.254;5.900;2022-08-27T00:33:31;7.85;;;2.97;;
54139;SDS011;40046;53.254;5.900;2022-08-27T00:35:57;7.60;;;3.65;;
54139;SDS011;40046;53.254;5.900;2022-08-27T00:38:23;6.70;;;3.03;;
54139;SDS011;40046;53.254;5.900;2022-08-27T00:40:49;6.45;;;3.17;;
54139;SDS011;40046;53.254;5.900;2022-08-27T00:43:20;10.55;;;3.20;;
54139;SDS011;40046;53.254;5.900;2022-08-27T00:45:48;6.47;;;3.20;;
54139;SDS011;40046;53.254;5.900;2022-08-27T00:48:17;8.77;;;2.92;;
54139;SDS011;40046;53.254;5.900;2022-08-27T00:50:46;5.68;;;2.85;;
54139;SDS011;40046;53.254;5.900;2022-08-27T00:53:17;6.75;;;3.30;;
54139;SDS011;40046;53.254;5.900;2022-08-27T00:56:07;7.22;;;3.17;;
54139;SDS011;40046;53.254;5.900;2022-08-27T00:58:44;6.53;;;3.63;;
54139;SDS011;40046;53.254;5.900;2022-08-27T01:01:13;8.38;;;3.38;;
54139;SDS011;40046;53.254;5.900;2022-08-27T01:03:43;6.28;;;3.03;;
54139;SDS011;40046;53.254;5.900;2022-08-27T01:06:12;5.15;;;2.28;;
54139;SDS011;40046;53.254;5.900;2022-08-27T01:08:41;4.22;;;1.85;;
54139;SDS011;40046;53.254;5.900;2022-08-27T01:11:12;4.57;;;2.50;;
54139;SDS011;40046;53.254;5.900;2022-08-27T01:13:40;5.53;;;2.00;;
54139;SDS011;40046;53.254;5.900;2022-08-27T01:16:07;5.15;;;2.20;;
54139;SDS011;40046;53.254;5.900;2022-08-27T01:18:34;5.47;;;2.83;;
54139;SDS011;40046;53.254;5.900;2022-08-27T01:21:19;8.35;;;2.20;;
54139;SDS011;40046;53.254;5.900;2022-08-27T01:26:15;4.72;;;2.20;;
54139;SDS011;40046;53.254;5.900;2022-08-27T01:28:42;3.95;;;2.25;;
54139;SDS011;40046;53.254;5.900;2022-08-27T01:31:09;6.43;;;2.65;;
54139;SDS011;40046;53.254;5.900;2022-08-27T01:33:36;4.60;;;1.85;;
54139;SDS011;40046;53.254;5.900;2022-08-27T01:36:03;4.57;;;2.10;;
54139;SDS011;40046;53.254;5.900;2022-08-27T01:38:29;4.15;;;2.35;;
54139;SDS011;40046;53.254;5.900;2022-08-27T01:40:55;7.13;;;2.20;;
54139;SDS011;40046;53.254;5.900;2022-08-27T01:43:21;6.22;;;1.77;;
54139;SDS011;40046;53.254;5.900;2022-08-27T01:45:48;5.45;;;2.00;;
54139;SDS011;40046;53.254;5.900;2022-08-27T01:48:15;3.55;;;1.50;;
54139;SDS011;40046;53.254;5.900;2022-08-27T01:50:43;7.55;;;2.05;;
54139;SDS011;40046;53.254;5.900;2022-08-27T01:53:16;6.38;;;2.28;;
54139;SDS011;40046;53.254;5.900;2022-08-27T01:55:45;6.18;;;2.05;;
54139;SDS011;40046;53.254;5.900;2022-08-27T01:58:12;4.65;;;2.17;;
54139;SDS011;40046;53.254;5.900;2022-08-27T02:00:41;4.72;;;2.10;;
54139;SDS011;40046;53.254;5.900;2022-08-27T02:03:09;4.97;;;2.10;;
54139;SDS011;40046;53.254;5.900;2022-08-27T02:05:36;4.47;;;2.00;;
54139;SDS011;40046;53.254;5.900;2022-08-27T02:08:04;5.28;;;2.45;;
54139;SDS011;40046;53.254;5.900;2022-08-27T02:10:32;4.10;;;2.25;;
54139;SDS011;40046;53.254;5.900;2022-08-27T02:13:00;5.30;;;2.05;;
54139;SDS011;40046;53.254;5.900;2022-08-27T02:15:26;7.43;;;2.47;;
54139;SDS011;40046;53.254;5.900;2022-08-27T02:17:53;4.97;;;2.13;;
54139;SDS011;40046;53.254;5.900;2022-08-27T02:20:19;6.93;;;2.63;;
54139;SDS011;40046;53.254;5.900;2022-08-27T02:22:46;5.32;;;1.90;;
54139;SDS011;40046;53.254;5.900;2022-08-27T02:25:13;7.68;;;2.70;;
54139;SDS011;40046;53.254;5.900;2022-08-27T02:27:41;4.53;;;1.95;;
54139;SDS011;40046;53.254;5.900;2022-08-27T02:30:09;6.00;;;2.13;;
54139;SDS011;40046;53.254;5.900;2022-08-27T02:32:36;6.68;;;2.40;;
54139;SDS011;40046;53.254;5.900;2022-08-27T02:35:02;6.05;;;2.10;;
54139;SDS011;40046;53.254;5.900;2022-08-27T02:37:29;5.55;;;2.30;;
54139;SDS011;40046;53.254;5.900;2022-08-27T02:39:55;7.63;;;2.75;;
54139;SDS011;40046;53.254;5.900;2022-08-27T02:42:21;7.13;;;2.25;;
54139;SDS011;40046;53.254;5.900;2022-08-27T02:44:47;7.65;;;1.88;;
54139;SDS011;40046;53.254;5.900;2022-08-27T02:47:13;7.45;;;2.75;;
54139;SDS011;40046;53.254;5.900;2022-08-27T02:49:41;6.43;;;2.00;;
54139;SDS011;40046;53.254;5.900;2022-08-27T02:52:08;6.03;;;2.78;;
54139;SDS011;40046;53.254;5.900;2022-08-27T02:54:34;4.88;;;2.53;;
54139;SDS011;40046;53.254;5.900;2022-08-27T02:57:00;7.40;;;2.20;;
54139;SDS011;40046;53.254;5.900;2022-08-27T02:59:26;4.32;;;2.00;;
54139;SDS011;40046;53.254;5.900;2022-08-27T03:01:52;6.22;;;2.25;;
54139;SDS011;40046;53.254;5.900;2022-08-27T03:04:17;3.55;;;1.85;;
54139;SDS011;40046;53.254;5.900;2022-08-27T03:06:44;6.28;;;2.22;;
54139;SDS011;40046;53.254;5.900;2022-08-27T03:09:11;5.05;;;2.13;;
54139;SDS011;40046;53.254;5.900;2022-08-27T03:11:36;5.32;;;1.95;;
54139;SDS011;40046;53.254;5.900;2022-08-27T03:14:03;5.35;;;2.30;;
54139;SDS011;40046;53.254;5.900;2022-08-27T03:16:32;3.88;;;2.17;;
54139;SDS011;40046;53.254;5.900;2022-08-27T03:18:59;7.85;;;2.45;;
54139;SDS011;40046;53.254;5.900;2022-08-27T03:21:25;6.20;;;2.70;;
54139;SDS011;40046;53.254;5.900;2022-08-27T03:23:51;5.63;;;2.15;;
54139;SDS011;40046;53.254;5.900;2022-08-27T03:26:18;6.43;;;2.25;;
54139;SDS011;40046;53.254;5.900;2022-08-27T03:28:44;5.18;;;1.95;;
54139;SDS011;40046;53.254;5.900;2022-08-27T03:31:18;8.35;;;3.25;;
54139;SDS011;40046;53.254;5.900;2022-08-27T03:33:51;4.20;;;2.60;;
54139;SDS011;40046;53.254;5.900;2022-08-27T03:36:21;5.57;;;2.45;;
54139;SDS011;40046;53.254;5.900;2022-08-27T03:38:47;7.20;;;2.50;;
54139;SDS011;40046;53.254;5.900;2022-08-27T03:41:13;4.75;;;2.08;;
54139;SDS011;40046;53.254;5.900;2022-08-27T03:43:40;4.60;;;2.33;;
54139;SDS011;40046;53.254;5.900;2022-08-27T03:46:06;5.47;;;1.70;;
54139;SDS011;40046;53.254;5.900;2022-08-27T03:48:33;6.38;;;1.98;;
54139;SDS011;40046;53.254;5.900;2022-08-27T03:51:06;5.80;;;1.67;;
54139;SDS011;40046;53.254;5.900;2022-08-27T03:53:35;6.95;;;2.08;;
54139;SDS011;40046;53.254;5.900;2022-08-27T03:56:02;6.15;;;2.35;;
54139;SDS011;40046;53.254;5.900;2022-08-27T03:58:28;4.82;;;2.03;;
54139;SDS011;40046;53.254;5.900;2022-08-27T04:00:54;4.15;;;1.70;;
54139;SDS011;40046;53.254;5.900;2022-08-27T04:03:20;10.00;;;2.25;;
54139;SDS011;40046;53.254;5.900;2022-08-27T04:05:50;5.78;;;2.25;;
54139;SDS011;40046;53.254;5.900;2022-08-27T04:08:20;6.65;;;2.03;;
54139;SDS011;40046;53.254;5.900;2022-08-27T04:10:47;3.63;;;2.15;;
54139;SDS011;40046;53.254;5.900;2022-08-27T04:13:13;4.85;;;1.60;;
54139;SDS011;40046;53.254;5.900;2022-08-27T04:15:43;9.60;;;1.77;;
54139;SDS011;40046;53.254;5.900;2022-08-27T04:18:11;5.22;;;1.90;;
54139;SDS011;40046;53.254;5.900;2022-08-27T04:20:40;4.25;;;1.88;;
54139;SDS011;40046;53.254;5.900;2022-08-27T04:23:10;3.78;;;1.60;;
54139;SDS011;40046;53.254;5.900;2022-08-27T04:25:39;6.55;;;1.77;;
54139;SDS011;40046;53.254;5.900;2022-08-27T04:28:06;5.45;;;1.70;;
54139;SDS011;40046;53.254;5.900;2022-08-27T04:30:33;3.30;;;1.52;;
54139;SDS011;40046;53.254;5.900;2022-08-27T04:33:02;3.70;;;1.40;;
54139;SDS011;40046;53.254;5.900;2022-08-27T04:35:28;4.32;;;1.65;;
54139;SDS011;40046;53.254;5.900;2022-08-27T04:37:54;6.55;;;1.60;;
54139;SDS011;40046;53.254;5.900;2022-08-27T04:40:20;7.07;;;1.50;;
54139;SDS011;40046;53.254;5.900;2022-08-27T04:42:46;9.35;;;1.65;;
54139;SDS011;40046;53.254;5.900;2022-08-27T04:45:12;6.03;;;2.10;;
54139;SDS011;40046;53.254;5.900;2022-08-27T04:47:37;4.72;;;1.70;;
54139;SDS011;40046;53.254;5.900;2022-08-27T04:50:03;3.75;;;1.60;;
54139;SDS011;40046;53.254;5.900;2022-08-27T04:52:29;6.15;;;1.65;;
54139;SDS011;40046;53.254;5.900;2022-08-27T04:54:55;7.18;;;1.50;;
54139;SDS011;40046;53.254;5.900;2022-08-27T04:57:21;4.03;;;1.45;;
54139;SDS011;40046;53.254;5.900;2022-08-27T04:59:47;5.47;;;2.10;;
54139;SDS011;40046;53.254;5.900;2022-08-27T05:02:12;5.13;;;1.55;;
54139;SDS011;40046;53.254;5.900;2022-08-27T05:04:39;4.57;;;1.38;;
54139;SDS011;40046;53.254;5.900;2022-08-27T05:07:06;5.60;;;1.55;;
54139;SDS011;40046;53.254;5.900;2022-08-27T05:09:33;6.10;;;1.20;;
54139;SDS011;40046;53.254;5.900;2022-08-27T05:11:59;5.22;;;1.58;;
54139;SDS011;40046;53.254;5.900;2022-08-27T05:14:26;4.93;;;1.27;;
54139;SDS011;40046;53.254;5.900;2022-08-27T05:16:55;5.28;;;1.77;;
54139;SDS011;40046;53.254;5.900;2022-08-27T05:19:22;4.00;;;1.38;;
54139;SDS011;40046;53.254;5.900;2022-08-27T05:21:48;4.18;;;1.67;;
54139;SDS011;40046;53.254;5.900;2022-08-27T05:24:16;6.28;;;1.35;;
54139;SDS011;40046;53.254;5.900;2022-08-27T05:26:42;5.18;;;1.30;;
54139;SDS011;40046;53.254;5.900;2022-08-27T05:29:09;7.75;;;1.73;;
54139;SDS011;40046;53.254;5.900;2022-08-27T05:31:35;6.18;;;1.20;;
54139;SDS011;40046;53.254;5.900;2022-08-27T05:34:02;3.72;;;1.65;;
54139;SDS011;40046;53.254;5.900;2022-08-27T05:36:31;5.70;;;1.35;;
54139;SDS011;40046;53.254;5.900;2022-08-27T05:38:59;5.43;;;1.50;;
54139;SDS011;40046;53.254;5.900;2022-08-27T05:41:27;5.25;;;1.10;;
54139;SDS011;40046;53.254;5.900;2022-08-27T05:43:56;4.53;;;1.45;;
54139;SDS011;40046;53.254;5.900;2022-08-27T05:46:23;6.30;;;1.88;;
54139;SDS011;40046;53.254;5.900;2022-08-27T05:48:51;4.63;;;1.73;;
54139;SDS011;40046;53.254;5.900;2022-08-27T05:51:20;5.25;;;1.40;;
54139;SDS011;40046;53.254;5.900;2022-08-27T05:54:03;5.30;;;1.65;;
54139;SDS011;40046;53.254;5.900;2022-08-27T05:56:32;5.60;;;1.05;;
54139;SDS011;40046;53.254;5.900;2022-08-27T05:58:59;5.65;;;1.20;;
54139;SDS011;40046;53.254;5.900;2022-08-27T06:01:46;6.10;;;1.27;;
54139;SDS011;40046;53.254;5.900;2022-08-27T06:04:13;3.20;;;1.08;;
54139;SDS011;40046;53.254;5.900;2022-08-27T06:06:42;6.85;;;1.48;;
54139;SDS011;40046;53.254;5.900;2022-08-27T06:09:09;5.25;;;1.38;;
54139;SDS011;40046;53.254;5.900;2022-08-27T06:11:36;5.63;;;1.10;;
54139;SDS011;40046;53.254;5.900;2022-08-27T06:14:03;4.90;;;1.30;;
54139;SDS011;40046;53.254;5.900;2022-08-27T06:16:30;6.10;;;1.40;;
54139;SDS011;40046;53.254;5.900;2022-08-27T06:18:56;5.40;;;1.35;;
54139;SDS011;40046;53.254;5.900;2022-08-27T06:21:23;7.90;;;1.50;;
54139;SDS011;40046;53.254;5.900;2022-08-27T06:23:50;3.15;;;1.30;;
54139;SDS011;40046;53.254;5.900;2022-08-27T06:26:17;6.55;;;2.25;;
54139;SDS011;40046;53.254;5.900;2022-08-27T06:28:43;5.38;;;1.15;;
54139;SDS011;40046;53.254;5.900;2022-08-27T06:31:11;4.40;;;1.08;;
54139;SDS011;40046;53.254;5.900;2022-08-27T06:33:43;5.50;;;1.20;;
54139;SDS011;40046;53.254;5.900;2022-08-27T06:36:10;3.47;;;0.95;;
54139;SDS011;40046;53.254;5.900;2022-08-27T06:38:38;4.70;;;1.08;;
54139;SDS011;40046;53.254;5.900;2022-08-27T06:41:07;5.50;;;1.50;;
54139;SDS011;40046;53.254;5.900;2022-08-27T06:43:35;5.60;;;1.20;;
54139;SDS011;40046;53.254;5.900;2022-08-27T06:46:02;4.25;;;1.25;;
54139;SDS011;40046;53.254;5.900;2022-08-27T06:48:29;4.68;;;1.38;;
54139;SDS011;40046;53.254;5.900;2022-08-27T06:50:55;7.63;;;1.80;;
54139;SDS011;40046;53.254;5.900;2022-08-27T06:53:21;11.98;;;2.60;;
54139;SDS011;40046;53.254;5.900;2022-08-27T06:55:47;9.07;;;1.75;;
54139;SDS011;40046;53.254;5.900;2022-08-27T06:58:13;5.82;;;1.13;;
54139;SDS011;40046;53.254;5.900;2022-08-27T07:00:41;3.95;;;1.13;;
54139;SDS011;40046;53.254;5.900;2022-08-27T07:03:08;5.15;;;1.23;;
54139;SDS011;40046;53.254;5.900;2022-08-27T07:05:36;4.68;;;1.88;;
54139;SDS011;40046;53.254;5.900;2022-08-27T07:08:03;10.23;;;1.33;;
54139;SDS011;40046;53.254;5.900;2022-08-27T07:10:31;6.22;;;1.83;;
54139;SDS011;40046;53.254;5.900;2022-08-27T07:12:58;9.70;;;1.33;;
54139;SDS011;40046;53.254;5.900;2022-08-27T07:15:25;6.70;;;1.20;;
54139;SDS011;40046;53.254;5.900;2022-08-27T07:17:51;3.78;;;0.98;;
54139;SDS011;40046;53.254;5.900;2022-08-27T07:20:18;5.65;;;1.63;;
54139;SDS011;40046;53.254;5.900;2022-08-27T07:22:45;6.70;;;1.38;;
54139;SDS011;40046;53.254;5.900;2022-08-27T07:25:14;4.82;;;0.90;;
54139;SDS011;40046;53.254;5.900;2022-08-27T07:27:44;6.78;;;1.30;;
54139;SDS011;40046;53.254;5.900;2022-08-27T07:30:12;5.80;;;1.55;;
54139;SDS011;40046;53.254;5.900;2022-08-27T07:32:40;3.88;;;1.15;;
54139;SDS011;40046;53.254;5.900;2022-08-27T07:35:07;9.00;;;2.20;;
54139;SDS011;40046;53.254;5.900;2022-08-27T07:37:37;5.30;;;1.48;;
54139;SDS011;40046;53.254;5.900;2022-08-27T07:40:05;5.80;;;1.35;;
54139;SDS011;40046;53.254;5.900;2022-08-27T07:42:38;3.88;;;1.02;;
54139;SDS011;40046;53.254;5.900;2022-08-27T07:45:24;8.40;;;1.55;;
54139;SDS011;40046;53.254;5.900;2022-08-27T07:47:50;7.53;;;1.48;;
54139;SDS011;40046;53.254;5.900;2022-08-27T07:50:16;5.88;;;1.20;;
54139;SDS011;40046;53.254;5.900;2022-08-27T07:52:42;5.43;;;1.48;;
54139;SDS011;40046;53.254;5.900;2022-08-27T07:55:09;7.57;;;1.52;;
54139;SDS011;40046;53.254;5.900;2022-08-27T07:57:36;3.90;;;0.85;;
54139;SDS011;40046;53.254;5.900;2022-08-27T08:00:03;3.58;;;0.90;;
54139;SDS011;40046;53.254;5.900;2022-08-27T08:02:38;6.47;;;1.40;;
54139;SDS011;40046;53.254;5.900;2022-08-27T08:05:06;4.85;;;1.00;;
54139;SDS011;40046;53.254;5.900;2022-08-27T08:07:32;6.13;;;1.33;;
54139;SDS011;40046;53.254;5.900;2022-08-27T08:09:58;3.42;;;0.80;;
54139;SDS011;40046;53.254;5.900;2022-08-27T08:12:24;3.45;;;0.90;;
54139;SDS011;40046;53.254;5.900;2022-08-27T08:14:51;4.63;;;1.02;;
54139;SDS011;40046;53.254;5.900;2022-08-27T08:17:22;9.60;;;1.15;;
54139;SDS011;40046;53.254;5.900;2022-08-27T08:19:51;6.40;;;1.15;;
54139;SDS011;40046;53.254;5.900;2022-08-27T08:22:18;4.32;;;1.33;;
54139;SDS011;40046;53.254;5.900;2022-08-27T08:24:44;5.57;;;1.27;;
54139;SDS011;40046;53.254;5.900;2022-08-27T08:27:10;7.43;;;1.92;;
54139;SDS011;40046;53.254;5.900;2022-08-27T08:29:36;6.38;;;0.85;;
54139;SDS011;40046;53.254;5.900;2022-08-27T08:32:03;4.13;;;0.90;;
54139;SDS011;40046;53.254;5.900;2022-08-27T08:34:29;6.20;;;1.63;;
54139;SDS011;40046;53.254;5.900;2022-08-27T08:36:55;4.05;;;0.70;;
54139;SDS011;40046;53.254;5.900;2022-08-27T08:39:22;5.75;;;1.27;;
54139;SDS011;40046;53.254;5.900;2022-08-27T08:41:50;5.00;;;1.00;;
54139;SDS011;40046;53.254;5.900;2022-08-27T08:44:29;9.90;;;1.20;;
54139;SDS011;40046;53.254;5.900;2022-08-27T08:47:07;5.75;;;1.10;;
54139;SDS011;40046;53.254;5.900;2022-08-27T08:49:37;6.82;;;1.10;;
54139;SDS011;40046;53.254;5.900;2022-08-27T08:52:11;4.70;;;1.10;;
54139;SDS011;40046;53.254;5.900;2022-08-27T08:54:55;5.85;;;1.48;;
54139;SDS011;40046;53.254;5.900;2022-08-27T08:57:32;5.80;;;0.85;;
54139;SDS011;40046;53.254;5.900;2022-08-27T09:00:08;3.50;;;0.68;;
54139;SDS011;40046;53.254;5.900;2022-08-27T09:02:37;4.75;;;1.00;;
54139;SDS011;40046;53.254;5.900;2022-08-27T09:05:07;7.15;;;1.63;;
54139;SDS011;40046;53.254;5.900;2022-08-27T09:07:40;6.40;;;1.15;;
54139;SDS011;40046;53.254;5.900;2022-08-27T09:10:13;9.00;;;2.25;;
54139;SDS011;40046;53.254;5.900;2022-08-27T09:12:50;6.80;;;1.17;;
54139;SDS011;40046;53.254;5.900;2022-08-27T09:15:21;7.72;;;2.38;;
54139;SDS011;40046;53.254;5.900;2022-08-27T09:17:51;5.22;;;1.48;;
54139;SDS011;40046;53.254;5.900;2022-08-27T09:20:18;3.90;;;0.60;;
54139;SDS011;40046;53.254;5.900;2022-08-27T09:25:24;7.70;;;1.05;;
54139;SDS011;40046;53.254;5.900;2022-08-27T09:27:57;7.57;;;1.00;;
54139;SDS011;40046;53.254;5.900;2022-08-27T09:30:26;3.83;;;0.80;;
54139;SDS011;40046;53.254;5.900;2022-08-27T09:32:55;4.60;;;0.98;;
54139;SDS011;40046;53.254;5.900;2022-08-27T09:35:43;4.25;;;1.02;;
54139;SDS011;40046;53.254;5.900;2022-08-27T09:38:10;3.13;;;0.80;;
54139;SDS011;40046;53.254;5.900;2022-08-27T09:40:51;6.10;;;1.27;;
54139;SDS011;40046;53.254;5.900;2022-08-27T09:43:19;3.53;;;1.25;;
54139;SDS011;40046;53.254;5.900;2022-08-27T09:45:54;2.70;;;0.70;;
54139;SDS011;40046;53.254;5.900;2022-08-27T09:48:30;4.72;;;2.10;;
54139;SDS011;40046;53.254;5.900;2022-08-27T09:53:45;3.92;;;0.80;;
54139;SDS011;40046;53.254;5.900;2022-08-27T10:01:32;2.88;;;0.80;;
54139;SDS011;40046;53.254;5.900;2022-08-27T10:04:04;3.33;;;0.73;;
54139;SDS011;40046;53.254;5.900;2022-08-27T10:06:46;4.00;;;1.98;;
54139;SDS011;40046;53.254;5.900;2022-08-27T10:09:14;8.30;;;0.88;;
54139;SDS011;40046;53.254;5.900;2022-08-27T10:11:48;4.35;;;0.70;;
54139;SDS011;40046;53.254;5.900;2022-08-27T10:14:31;7.45;;;0.70;;
54139;SDS011;40046;53.254;5.900;2022-08-27T10:17:24;5.18;;;0.80;;
54139;SDS011;40046;53.254;5.900;2022-08-27T10:20:14;4.30;;;0.88;;
54139;SDS011;40046;53.254;5.900;2022-08-27T10:25:39;5.20;;;0.95;;
54139;SDS011;40046;53.254;5.900;2022-08-27T10:28:43;4.63;;;0.88;;
54139;SDS011;40046;53.254;5.900;2022-08-27T10:31:36;5.10;;;0.82;;
54139;SDS011;40046;53.254;5.900;2022-08-27T10:34:14;3.28;;;0.93;;
54139;SDS011;40046;53.254;5.900;2022-08-27T10:42:28;3.88;;;0.80;;
54139;SDS011;40046;53.254;5.900;2022-08-27T10:45:10;5.80;;;0.77;;
54139;SDS011;40046;53.254;5.900;2022-08-27T10:48:05;4.30;;;0.82;;
54139;SDS011;40046;53.254;5.900;2022-08-27T10:53:29;4.55;;;1.50;;
54139;SDS011;40046;53.254;5.900;2022-08-27T10:56:45;5.68;;;0.70;;
54139;SDS011;40046;53.254;5.900;2022-08-27T11:02:21;4.15;;;0.75;;
54139;SDS011;40046;53.254;5.900;2022-08-27T11:05:46;9.75;;;2.25;;
54139;SDS011;40046;53.254;5.900;2022-08-27T11:08:06;6.18;;;1.02;;
54139;SDS011;40046;53.254;5.900;2022-08-27T11:10:47;4.93;;;1.02;;
54139;SDS011;40046;53.254;5.900;2022-08-27T11:13:30;7.05;;;0.95;;
54139;SDS011;40046;53.254;5.900;2022-08-27T11:16:01;4.75;;;1.35;;
54139;SDS011;40046;53.254;5.900;2022-08-27T11:18:41;5.00;;;1.33;;
54139;SDS011;40046;53.254;5.900;2022-08-27T11:21:17;5.53;;;0.80;;
54139;SDS011;40046;53.254;5.900;2022-08-27T11:23:58;7.22;;;0.90;;
54139;SDS011;40046;53.254;5.900;2022-08-27T11:26:33;2.90;;;1.15;;
54139;SDS011;40046;53.254;5.900;2022-08-27T11:29:05;5.25;;;0.85;;
54139;SDS011;40046;53.254;5.900;2022-08-27T11:31:44;3.20;;;0.60;;
54139;SDS011;40046;53.254;5.900;2022-08-27T11:34:17;4.18;;;0.80;;
54139;SDS011;40046;53.254;5.900;2022-08-27T11:42:13;3.78;;;0.90;;
54139;SDS011;40046;53.254;5.900;2022-08-27T11:45:04;4.00;;;0.65;;
54139;SDS011;40046;53.254;5.900;2022-08-27T11:47:35;3.80;;;0.95;;
54139;SDS011;40046;53.254;5.900;2022-08-27T11:50:03;3.97;;;1.55;;
54139;SDS011;40046;53.254;5.900;2022-08-27T11:57:48;5.35;;;1.05;;
54139;SDS011;40046;53.254;5.900;2022-08-27T12:03:27;2.88;;;0.70;;
54139;SDS011;40046;53.254;5.900;2022-08-27T12:08:17;5.60;;;1.23;;
54139;SDS011;40046;53.254;5.900;2022-08-27T12:13:24;5.32;;;1.10;;
54139;SDS011;40046;53.254;5.900;2022-08-27T12:16:09;5.68;;;0.77;;
54139;SDS011;40046;53.254;5.900;2022-08-27T12:37:28;13.68;;;1.77;;
54139;SDS011;40046;53.254;5.900;2022-08-27T12:42:29;6.70;;;1.52;;
54139;SDS011;40046;53.254;5.900;2022-08-27T12:44:55;6.18;;;1.63;;
54139;SDS011;40046;53.254;5.900;2022-08-27T12:47:23;9.02;;;1.80;;
54139;SDS011;40046;53.254;5.900;2022-08-27T12:49:51;6.80;;;2.05;;
54139;SDS011;40046;53.254;5.900;2022-08-27T12:58:01;3.95;;;1.60;;
54139;SDS011;40046;53.254;5.900;2022-08-27T13:01:00;5.22;;;1.58;;
54139;SDS011;40046;53.254;5.900;2022-08-27T13:03:38;7.53;;;1.73;;
54139;SDS011;40046;53.254;5.900;2022-08-27T13:06:28;5.65;;;2.15;;
54139;SDS011;40046;53.254;5.900;2022-08-27T13:09:01;5.10;;;1.52;;
54139;SDS011;40046;53.254;5.900;2022-08-27T13:11:31;4.70;;;1.52;;
54139;SDS011;40046;53.254;5.900;2022-08-27T13:14:09;5.53;;;1.55;;
54139;SDS011;40046;53.254;5.900;2022-08-27T13:16:47;5.90;;;1.92;;
54139;SDS011;40046;53.254;5.900;2022-08-27T13:19:27;8.88;;;1.83;;
54139;SDS011;40046;53.254;5.900;2022-08-27T13:21:57;4.82;;;1.52;;
54139;SDS011;40046;53.254;5.900;2022-08-27T13:24:27;4.63;;;1.50;;
54139;SDS011;40046;53.254;5.900;2022-08-27T13:26:58;4.28;;;1.20;;
54139;SDS011;40046;53.254;5.900;2022-08-27T13:29:27;5.30;;;1.67;;
54139;SDS011;40046;53.254;5.900;2022-08-27T13:31:53;6.70;;;2.85;;
54139;SDS011;40046;53.254;5.900;2022-08-27T13:34:21;4.47;;;1.27;;
54139;SDS011;40046;53.254;5.900;2022-08-27T13:37:00;7.70;;;1.42;;
54139;SDS011;40046;53.254;5.900;2022-08-27T13:39:31;6.03;;;1.45;;
54139;SDS011;40046;53.254;5.900;2022-08-27T13:41:58;4.90;;;1.75;;
54139;SDS011;40046;53.254;5.900;2022-08-27T13:44:30;8.60;;;2.35;;
54139;SDS011;40046;53.254;5.900;2022-08-27T13:47:00;6.00;;;1.58;;
54139;SDS011;40046;53.254;5.900;2022-08-27T13:49:29;8.63;;;2.33;;
54139;SDS011;40046;53.254;5.900;2022-08-27T13:54:42;4.15;;;1.50;;
54139;SDS011;40046;53.254;5.900;2022-08-27T13:57:21;10.00;;;2.72;;
54139;SDS011;40046;53.254;5.900;2022-08-27T14:00:18;5.97;;;1.77;;
54139;SDS011;40046;53.254;5.900;2022-08-27T14:02:53;4.07;;;1.58;;
54139;SDS011;40046;53.254;5.900;2022-08-27T14:07:58;7.82;;;2.58;;
54139;SDS011;40046;53.254;5.900;2022-08-27T14:13:10;6.72;;;2.50;;
54139;SDS011;40046;53.254;5.900;2022-08-27T14:15:47;5.13;;;1.77;;
54139;SDS011;40046;53.254;5.900;2022-08-27T14:20:58;5.75;;;1.80;;
54139;SDS011;40046;53.254;5.900;2022-08-27T14:23:25;5.38;;;1.90;;
54139;SDS011;40046;53.254;5.900;2022-08-27T14:25:53;7.22;;;2.45;;
54139;SDS011;40046;53.254;5.900;2022-08-27T14:28:21;8.75;;;2.38;;
54139;SDS011;40046;53.254;5.900;2022-08-27T14:30:47;10.98;;;2.75;;
54139;SDS011;40046;53.254;5.900;2022-08-27T14:33:14;5.32;;;1.73;;
54139;SDS011;40046;53.254;5.900;2022-08-27T14:35:40;4.65;;;2.03;;
54139;SDS011;40046;53.254;5.900;2022-08-27T14:38:12;8.30;;;2.38;;
54139;SDS011;40046;53.254;5.900;2022-08-27T14:40:41;4.78;;;1.77;;
54139;SDS011;40046;53.254;5.900;2022-08-27T14:43:07;5.25;;;2.13;;
54139;SDS011;40046;53.254;5.900;2022-08-27T14:45:33;8.02;;;2.10;;
54139;SDS011;40046;53.254;5.900;2022-08-27T14:48:03;5.22;;;1.92;;
54139;SDS011;40046;53.254;5.900;2022-08-27T14:50:59;5.82;;;2.10;;
54139;SDS011;40046;53.254;5.900;2022-08-27T14:53:31;6.38;;;1.90;;
54139;SDS011;40046;53.254;5.900;2022-08-27T14:55:57;4.97;;;1.58;;
54139;SDS011;40046;53.254;5.900;2022-08-27T14:58:24;8.68;;;1.90;;
54139;SDS011;40046;53.254;5.900;2022-08-27T15:00:50;7.97;;;2.22;;
54139;SDS011;40046;53.254;5.900;2022-08-27T15:03:16;6.60;;;2.05;;
54139;SDS011;40046;53.254;5.900;2022-08-27T15:05:44;6.90;;;1.73;;
54139;SDS011;40046;53.254;5.900;2022-08-27T15:08:09;5.43;;;1.83;;
54139;SDS011;40046;53.254;5.900;2022-08-27T15:10:37;6.00;;;1.73;;
54139;SDS011;40046;53.254;5.900;2022-08-27T15:13:03;4.88;;;2.20;;
54139;SDS011;40046;53.254;5.900;2022-08-27T15:15:29;6.22;;;1.70;;
54139;SDS011;40046;53.254;5.900;2022-08-27T15:17:55;8.45;;;2.38;;
54139;SDS011;40046;53.254;5.900;2022-08-27T15:20:21;5.22;;;1.60;;
54139;SDS011;40046;53.254;5.900;2022-08-27T15:22:47;5.57;;;1.60;;
54139;SDS011;40046;53.254;5.900;2022-08-27T15:25:16;8.23;;;2.50;;
54139;SDS011;40046;53.254;5.900;2022-08-27T15:27:43;4.65;;;1.73;;
54139;SDS011;40046;53.254;5.900;2022-08-27T15:30:09;8.55;;;2.13;;
54139;SDS011;40046;53.254;5.900;2022-08-27T15:32:41;4.05;;;2.28;;
54139;SDS011;40046;53.254;5.900;2022-08-27T15:35:11;5.55;;;2.03;;
54139;SDS011;40046;53.254;5.900;2022-08-27T15:37:39;9.45;;;2.35;;
54139;SDS011;40046;53.254;5.900;2022-08-27T15:40:06;6.95;;;2.42;;
54139;SDS011;40046;53.254;5.900;2022-08-27T15:42:33;6.53;;;2.00;;
54139;SDS011;40046;53.254;5.900;2022-08-27T15:44:59;5.15;;;1.92;;
54139;SDS011;40046;53.254;5.900;2022-08-27T15:47:25;6.05;;;2.60;;
54139;SDS011;40046;53.254;5.900;2022-08-27T15:49:51;5.47;;;1.88;;
54139;SDS011;40046;53.254;5.900;2022-08-27T15:52:18;5.68;;;2.67;;
54139;SDS011;40046;53.254;5.900;2022-08-27T15:54:46;8.95;;;2.72;;
54139;SDS011;40046;53.254;5.900;2022-08-27T15:57:16;5.75;;;2.30;;
54139;SDS011;40046;53.254;5.900;2022-08-27T15:59:44;6.45;;;2.50;;
54139;SDS011;40046;53.254;5.900;2022-08-27T16:02:12;10.25;;;3.00;;
54139;SDS011;40046;53.254;5.900;2022-08-27T16:04:43;8.95;;;3.22;;
54139;SDS011;40046;53.254;5.900;2022-08-27T16:07:09;6.28;;;2.65;;
54139;SDS011;40046;53.254;5.900;2022-08-27T16:09:36;9.30;;;2.40;;
54139;SDS011;40046;53.254;5.900;2022-08-27T16:12:02;9.80;;;2.78;;
54139;SDS011;40046;53.254;5.900;2022-08-27T16:14:28;12.15;;;3.92;;
54139;SDS011;40046;53.254;5.900;2022-08-27T16:16:53;6.57;;;2.60;;
54139;SDS011;40046;53.254;5.900;2022-08-27T16:19:21;9.15;;;2.22;;
54139;SDS011;40046;53.254;5.900;2022-08-27T16:21:48;11.00;;;2.40;;
54139;SDS011;40046;53.254;5.900;2022-08-27T16:24:16;9.25;;;2.83;;
54139;SDS011;40046;53.254;5.900;2022-08-27T16:26:43;8.93;;;2.60;;
54139;SDS011;40046;53.254;5.900;2022-08-27T16:29:09;11.57;;;3.60;;